Friday, October 19, 2018, 5:56 PM EDT
Back to Local

KELZ, Wellsville Municipal Airport

Location: Wellsville, NY, United States Lat: 42.1
Local Time: 5:56 PM EDT (21:56 GMT) Lon: -78
Time Zone: US/Eastern Elev: 2122 ft

Show me the last for .
Show Coded

Time T Td Feel RH Dir Speed Gust Alt SLP Vis Weather Sky Remarks
2018-10-19 16:56 55 28 - 35 210° 6 - 29.96 29.98 10 CLR None
2018-10-19 15:56 56 28 - 34 220° 5 - 29.98 30.01 10 CLR None
2018-10-19 14:56 54 26 - 33 230° 12 - 30.02 30.05 10 CLR None
2018-10-19 13:56 55 31 - 39 210° 13 18 30.05 30.08 10 CLR 6-hr Min Temp (2pm): 37.0°F
6-hr Max Temp (2pm): 57.9°F
2018-10-19 12:56 56 30 - 36 230° 10 17 30.09 30.12 10 CLR None
2018-10-19 11:56 51 32 - 47 200° 12 20 30.13 30.17 10 CLR None
2018-10-19 10:56 49 35 44 58 230° 13 - 30.17 30.21 10 CLR None
2018-10-19 09:56 44 34 37 67 250° 14 - 30.19 30.23 10 CLR None
2018-10-19 08:56 41 32 35 70 250° 10 - 30.21 30.25 10 CLR None
2018-10-19 07:56 36 29 28 75 250° 10 - 30.21 30.27 10 CLR 6-hr Min Temp (8am): 35.1°F
6-hr Max Temp (8am): 37.9°F
2018-10-19 06:56 36 29 28 75 240° 10 - 30.22 30.28 10 CLR None
2018-10-19 05:56 38 29 31 69 250° 9 - 30.24 30.29 10 CLR None
2018-10-19 04:56 37 28 27 69 260° 9 20 30.24 30.28 10 CLR None
2018-10-19 03:56 36 28 26 72 260° 8 17 30.25 30.30 10 CLR None
2018-10-19 02:56 37 28 27 69 260° 9 18 30.25 30.30 10 CLR None
2018-10-19 01:56 36 28 30 72 250° 8 - 30.27 30.32 10 CLR 6-hr Min Temp (2am): 34.0°F
6-hr Max Temp (2am): 37.0°F
2018-10-19 00:56 36 28 28 72 250° 12 - 30.27 30.33 10 CLR 24-hr Min Temp (1am): 30.9°F
24-hr Max Temp (1am): 42.1°F
2018-10-18 23:56 37 29 27 72 250° 12 20 30.27 30.33 10 CLR None
2018-10-18 22:56 36 29 30 75 250° 7 - 30.29 30.35 10 CLR None
2018-10-18 21:56 36 29 31 75 250° 6 - 30.30 30.36 10 CLR None
2018-10-18 20:56 36 28 31 72 250° 6 - 30.31 30.38 10 CLR None
2018-10-18 19:56 35 28 30 75 280° 6 - 30.32 30.39 10 CLR 6-hr Min Temp (8pm): 34.0°F
6-hr Max Temp (8pm): 42.1°F
2018-10-18 18:56 36 28 31 72 270° 6 - 30.33 30.40 10 CLR None

Support USWX by starting your Amazon purchase here.